createdAt,value
2019-04-05T00:00:08.730Z,62.40
2019-04-05T00:02:38.217Z,62.80
2019-04-05T00:05:06.376Z,63.20
2019-04-05T00:07:34.053Z,63.20
2019-04-05T00:10:01.743Z,63.60
2019-04-05T00:12:30.447Z,63.50
2019-04-05T00:14:58.827Z,63.50
2019-04-05T00:17:26.497Z,63.40
2019-04-05T00:19:54.177Z,62.90
2019-04-05T00:22:21.845Z,62.30
2019-04-05T00:24:49.583Z,62.00
2019-04-05T00:27:17.382Z,62.00
2019-04-05T00:29:45.078Z,62.40
2019-04-05T00:32:13.718Z,62.20
2019-04-05T00:34:41.394Z,62.30
2019-04-05T00:37:09.099Z,62.20
2019-04-05T00:39:36.815Z,62.50
2019-04-05T00:42:04.445Z,62.60
2019-04-05T00:44:32.121Z,62.30
2019-04-05T00:46:59.771Z,62.60
2019-04-05T00:49:27.486Z,62.50
2019-04-05T00:51:55.170Z,62.40
2019-04-05T00:54:22.830Z,61.50
2019-04-05T00:56:50.516Z,61.80
2019-04-05T00:59:18.165Z,62.30
2019-04-05T01:01:45.830Z,62.70
2019-04-05T01:04:13.457Z,62.10
2019-04-05T01:06:41.241Z,62.20
2019-04-05T01:09:09.121Z,62.40
2019-04-05T01:11:37.222Z,62.00
2019-04-05T01:14:04.870Z,62.20
2019-04-05T01:16:32.925Z,62.00
2019-04-05T01:19:00.665Z,62.60
2019-04-05T01:21:32.681Z,62.60
2019-04-05T01:24:01.667Z,62.70
2019-04-05T01:26:30.042Z,62.50
2019-04-05T01:28:57.789Z,62.50
2019-04-05T01:31:25.572Z,62.90
2019-04-05T01:33:53.337Z,62.80
2019-04-05T01:36:21.069Z,62.60
2019-04-05T01:38:48.724Z,62.90
2019-04-05T01:41:16.620Z,63.30
2019-04-05T01:43:44.271Z,63.00
2019-04-05T01:46:12.019Z,63.30
2019-04-05T01:48:39.693Z,63.10
2019-04-05T01:51:07.389Z,62.90
2019-04-05T01:53:35.076Z,63.00
2019-04-05T01:56:03.010Z,62.70
2019-04-05T01:58:30.678Z,62.30
2019-04-05T02:00:58.529Z,62.30
2019-04-05T02:03:26.184Z,62.30
2019-04-05T02:05:53.858Z,62.70
2019-04-05T02:08:21.489Z,63.40
2019-04-05T02:10:49.237Z,63.60
2019-04-05T02:13:16.929Z,63.50
2019-04-05T02:15:44.783Z,63.20
2019-04-05T02:18:12.417Z,63.40
2019-04-05T02:20:40.093Z,63.70
2019-04-05T02:23:07.773Z,63.80
2019-04-05T02:25:35.459Z,63.90
2019-04-05T02:28:03.096Z,63.90
2019-04-05T02:30:31.009Z,63.70
2019-04-05T02:32:58.780Z,63.90
2019-04-05T02:35:26.511Z,64.40
2019-04-05T02:37:54.171Z,63.70
2019-04-05T02:40:25.024Z,63.90
2019-04-05T02:42:54.275Z,64.30
2019-04-05T02:45:22.944Z,63.90
2019-04-05T02:47:53.834Z,64.00
2019-04-05T02:50:24.012Z,63.90
2019-04-05T02:52:55.305Z,63.60
2019-04-05T02:55:23.587Z,63.50
2019-04-05T02:57:52.309Z,63.70
2019-04-05T03:00:20.082Z,63.70
2019-04-05T03:02:48.312Z,63.50
2019-04-05T03:05:16.660Z,63.30
2019-04-05T03:07:44.343Z,63.20
2019-04-05T03:10:49.439Z,62.90
2019-04-05T03:13:17.120Z,63.20
2019-04-05T03:15:45.102Z,62.90
2019-04-05T03:18:12.770Z,63.40
2019-04-05T03:20:40.522Z,63.40
2019-04-05T03:23:08.802Z,64.00
2019-04-05T03:25:36.657Z,63.50
2019-04-05T03:28:04.618Z,63.90
2019-04-05T03:30:32.414Z,63.50
2019-04-05T03:33:00.025Z,63.30
2019-04-05T03:35:27.957Z,63.60
2019-04-05T03:37:55.594Z,64.10
2019-04-05T03:40:23.384Z,64.50
2019-04-05T03:42:51.127Z,64.60
2019-04-05T03:45:18.954Z,64.40
2019-04-05T03:47:46.608Z,64.70
2019-04-05T03:50:14.437Z,64.40
2019-04-05T03:52:42.803Z,64.10
2019-04-05T03:55:10.517Z,63.80
2019-04-05T03:57:38.230Z,63.70
2019-04-05T04:00:06.245Z,63.50
2019-04-05T04:02:34.431Z,63.70
2019-04-05T04:05:02.138Z,63.70
2019-04-05T04:07:30.857Z,64.10
2019-04-05T04:09:58.492Z,63.70
2019-04-05T04:12:26.392Z,63.70
2019-04-05T04:14:54.050Z,63.60
2019-04-05T04:17:21.790Z,63.90
2019-04-05T04:19:49.801Z,64.00
2019-04-05T04:22:23.278Z,64.20
2019-04-05T04:24:51.329Z,64.20
2019-04-05T04:27:19.532Z,64.10
2019-04-05T04:29:47.382Z,64.40
2019-04-05T04:32:15.366Z,64.30
2019-04-05T04:34:43.255Z,64.30
2019-04-05T04:37:11.093Z,64.40
2019-04-05T04:39:39.623Z,64.30
2019-04-05T04:42:07.390Z,64.50
2019-04-05T04:44:35.113Z,64.00
2019-04-05T04:47:03.024Z,64.10
2019-04-05T04:49:31.383Z,64.00
2019-04-05T04:51:59.254Z,63.50
2019-04-05T04:54:27.317Z,63.40
2019-04-05T04:56:55.049Z,63.40
2019-04-05T04:59:22.691Z,63.40
2019-04-05T05:01:50.477Z,63.20
2019-04-05T05:04:18.384Z,63.90
2019-04-05T05:06:46.134Z,63.50
2019-04-05T05:09:13.843Z,63.60
2019-04-05T05:11:41.757Z,63.80
2019-04-05T05:14:09.645Z,63.40
2019-04-05T05:16:37.269Z,63.30
2019-04-05T05:19:05.177Z,63.50
2019-04-05T05:21:32.940Z,63.60
2019-04-05T05:24:00.600Z,63.50
2019-04-05T05:26:28.584Z,63.30
2019-04-05T05:28:56.551Z,62.90
2019-04-05T05:31:24.576Z,63.10
2019-04-05T05:33:52.388Z,63.90
2019-04-05T05:36:20.199Z,63.10
2019-04-05T05:38:47.917Z,63.50
2019-04-05T05:41:15.716Z,63.40
2019-04-05T05:43:43.361Z,64.10
2019-04-05T05:46:11.078Z,64.10
2019-04-05T05:48:39.226Z,64.50
2019-04-05T05:51:06.902Z,64.50
2019-04-05T05:53:34.784Z,64.30
2019-04-05T05:56:02.418Z,64.50
2019-04-05T05:58:30.129Z,64.10
2019-04-05T06:00:57.790Z,63.60
2019-04-05T06:03:25.506Z,63.70
2019-04-05T06:06:03.711Z,63.70
2019-04-05T06:08:22.743Z,63.80
2019-04-05T06:10:50.429Z,64.00
2019-04-05T06:13:18.180Z,63.70
2019-04-05T06:15:45.720Z,63.80
2019-04-05T06:18:13.377Z,63.40
2019-04-05T06:20:41.666Z,63.70
2019-04-05T06:23:09.310Z,63.70
2019-04-05T06:25:36.943Z,63.00
2019-04-05T06:28:04.648Z,62.70
2019-04-05T06:30:32.337Z,62.40
2019-04-05T06:33:00.073Z,62.60
2019-04-05T06:35:27.759Z,62.90
2019-04-05T06:37:55.415Z,62.60
2019-04-05T06:40:23.077Z,61.70
2019-04-05T06:42:50.712Z,61.50
2019-04-05T06:45:18.463Z,61.70
2019-04-05T06:47:46.121Z,61.70
2019-04-05T06:50:13.944Z,61.70
2019-04-05T06:52:41.577Z,61.70
2019-04-05T06:55:09.349Z,61.70
2019-04-05T06:57:37.078Z,61.70
2019-04-05T07:00:05.341Z,60.80
2019-04-05T07:02:33.783Z,60.80
2019-04-05T07:05:01.537Z,60.80
2019-04-05T07:07:29.321Z,61.00
2019-04-05T07:09:57.017Z,60.70
2019-04-05T07:12:24.653Z,60.30
2019-04-05T07:14:52.348Z,60.50
2019-04-05T07:17:20.016Z,59.90
2019-04-05T07:19:48.689Z,60.40
2019-04-05T07:22:16.346Z,61.90
2019-04-05T07:24:44.061Z,61.10
2019-04-05T07:27:11.714Z,60.00
2019-04-05T07:29:39.353Z,60.90
2019-04-05T07:32:08.029Z,60.00
2019-04-05T07:34:35.788Z,60.30
2019-04-05T07:37:03.407Z,61.10
2019-04-05T07:39:31.068Z,60.40
2019-04-05T07:41:58.760Z,60.40
2019-04-05T07:44:26.480Z,60.20
2019-04-05T07:46:54.137Z,62.00
2019-04-05T07:49:21.802Z,60.10
2019-04-05T07:51:49.453Z,60.50
2019-04-05T07:54:17.177Z,61.00
2019-04-05T07:56:46.357Z,60.20
2019-04-05T07:59:14.145Z,60.70
2019-04-05T08:01:41.846Z,60.90
2019-04-05T08:04:09.464Z,60.10
2019-04-05T08:06:39.906Z,60.30
2019-04-05T08:09:12.109Z,60.00
2019-04-05T08:11:42.406Z,61.50
2019-04-05T08:14:10.497Z,61.00
2019-04-05T08:16:39.199Z,61.10
2019-04-05T08:19:06.824Z,60.70
2019-04-05T08:21:34.453Z,60.30
2019-04-05T08:24:02.136Z,61.00
2019-04-05T08:26:29.774Z,60.00
2019-04-05T08:28:57.595Z,59.30
2019-04-05T08:31:25.298Z,60.10
2019-04-05T08:33:52.982Z,59.80
2019-04-05T08:36:20.670Z,60.50
2019-04-05T08:38:48.298Z,60.00
2019-04-05T08:41:16.023Z,58.80
2019-04-05T08:43:43.742Z,60.30
2019-04-05T08:46:11.501Z,59.10
2019-04-05T08:48:39.205Z,58.80
2019-04-05T08:51:06.934Z,57.90
2019-04-05T08:53:34.752Z,56.90
2019-04-05T08:56:02.534Z,56.80
2019-04-05T08:58:33.552Z,56.70
2019-04-05T09:01:00.873Z,56.70
2019-04-05T09:03:28.655Z,56.30
2019-04-05T09:05:56.364Z,56.70
2019-04-05T09:08:24.038Z,59.20
2019-04-05T09:10:54.555Z,59.20
2019-04-05T09:13:21.277Z,59.10
2019-04-05T09:15:48.929Z,56.40
2019-04-05T09:18:16.601Z,56.80
2019-04-05T09:20:44.324Z,57.20
2019-04-05T09:23:12.004Z,57.30
2019-04-05T09:25:39.656Z,57.50
2019-04-05T09:28:07.362Z,56.50
2019-04-05T09:30:35.166Z,56.50
2019-04-05T09:33:02.835Z,56.80
2019-04-05T09:35:30.513Z,55.60
2019-04-05T09:37:58.165Z,54.40
2019-04-05T09:40:25.885Z,53.30
2019-04-05T09:42:53.513Z,53.50
2019-04-05T09:45:21.272Z,53.40
2019-04-05T09:47:48.998Z,54.90
2019-04-05T09:50:16.861Z,54.00
2019-04-05T09:52:44.506Z,52.80
2019-04-05T09:55:12.281Z,52.80
2019-04-05T09:57:39.983Z,53.10
2019-04-05T10:00:15.040Z,52.70
2019-04-05T10:02:42.761Z,51.80
2019-04-05T10:05:11.666Z,52.10
2019-04-05T10:07:53.723Z,53.30
2019-04-05T10:10:09.207Z,53.50
2019-04-05T10:12:37.066Z,51.90
2019-04-05T10:15:05.057Z,52.90
2019-04-05T10:17:32.725Z,53.50
2019-04-05T10:20:00.435Z,52.00
2019-04-05T10:22:28.071Z,50.10
2019-04-05T10:24:55.761Z,50.20
2019-04-05T10:27:23.668Z,52.00
2019-04-05T10:29:51.309Z,50.90
2019-04-05T10:32:18.976Z,50.40
2019-04-05T10:34:46.767Z,51.50
2019-04-05T10:37:14.426Z,51.80
2019-04-05T10:39:42.121Z,50.40
2019-04-05T10:42:16.509Z,49.80
2019-04-05T10:44:44.206Z,50.20
2019-04-05T10:47:11.881Z,51.40
2019-04-05T10:49:39.679Z,51.00
2019-04-05T10:52:07.505Z,51.30
2019-04-05T10:54:35.137Z,50.10
2019-04-05T10:57:02.822Z,49.80
2019-04-05T10:59:30.682Z,50.30
2019-04-05T11:01:58.433Z,51.30
2019-04-05T11:04:26.140Z,51.90
2019-04-05T11:06:53.820Z,49.90
2019-04-05T11:09:21.489Z,50.50
2019-04-05T11:11:49.177Z,52.00
2019-04-05T11:14:16.824Z,49.60
2019-04-05T11:16:57.453Z,50.60
2019-04-05T11:19:15.098Z,51.50
2019-04-05T11:21:42.737Z,50.40
2019-04-05T11:24:10.454Z,52.10
2019-04-05T11:26:38.154Z,49.70
2019-04-05T11:29:05.854Z,50.30
2019-04-05T11:31:33.483Z,50.00
2019-04-05T11:34:01.265Z,50.00
2019-04-05T11:36:29.110Z,49.60
2019-04-05T11:38:56.898Z,49.90
2019-04-05T11:41:25.747Z,49.90
2019-04-05T11:43:55.737Z,51.30
2019-04-05T11:46:23.508Z,50.20
2019-04-05T11:48:51.416Z,50.30
2019-04-05T11:51:19.086Z,50.10
2019-04-05T11:53:46.728Z,50.30
2019-04-05T11:56:15.259Z,50.00
2019-04-05T11:58:48.474Z,50.00
2019-04-05T12:01:28.400Z,50.10
2019-04-05T12:03:56.256Z,49.70
2019-04-05T12:06:23.946Z,49.90
2019-04-05T12:08:52.707Z,50.00
2019-04-05T12:11:20.396Z,49.40
2019-04-05T12:13:48.032Z,51.50
2019-04-05T12:16:15.667Z,50.20
2019-04-05T12:18:43.329Z,49.10
2019-04-05T12:21:11.177Z,49.70
2019-04-05T12:23:38.954Z,49.60
2019-04-05T12:26:06.613Z,49.50
2019-04-05T12:28:34.293Z,49.10
2019-04-05T12:31:01.980Z,49.30
2019-04-05T12:33:29.676Z,49.50
2019-04-05T12:35:57.326Z,49.50
2019-04-05T12:38:34.048Z,49.20
2019-04-05T12:41:03.389Z,49.30
2019-04-05T12:43:31.433Z,48.50
2019-04-05T12:46:03.483Z,49.90
2019-04-05T12:48:31.219Z,49.50
2019-04-05T12:51:01.406Z,49.80
2019-04-05T12:53:28.427Z,50.20
2019-04-05T12:55:57.000Z,50.00
2019-04-05T12:58:25.997Z,49.30
2019-04-05T13:00:56.331Z,50.50
2019-04-05T13:03:23.995Z,51.10
2019-04-05T13:05:52.141Z,51.00
2019-04-05T13:08:20.823Z,50.70
2019-04-05T13:10:49.580Z,51.50
2019-04-05T13:13:17.326Z,50.80
2019-04-05T13:15:45.009Z,50.90
2019-04-05T13:18:12.653Z,50.40
2019-04-05T13:20:40.389Z,50.70
2019-04-05T13:23:08.282Z,50.50
2019-04-05T13:25:35.930Z,49.90
2019-04-05T13:28:12.843Z,51.20
2019-04-05T13:30:33.165Z,50.70
2019-04-05T13:33:00.826Z,51.70
2019-04-05T13:35:28.478Z,51.50
2019-04-05T13:37:56.227Z,51.70
2019-04-05T13:40:23.885Z,51.20
2019-04-05T13:42:51.608Z,52.10
2019-04-05T13:45:19.327Z,51.40
2019-04-05T13:47:46.991Z,51.90
2019-04-05T13:50:14.925Z,51.40
2019-04-05T13:52:42.595Z,51.50
2019-04-05T13:55:11.313Z,51.50
2019-04-05T13:57:41.014Z,52.40
2019-04-05T14:00:10.847Z,52.10
2019-04-05T14:02:38.511Z,51.70
2019-04-05T14:05:06.300Z,52.00
2019-04-05T14:07:34.320Z,51.20
2019-04-05T14:10:02.065Z,51.60
2019-04-05T14:12:31.280Z,50.60
2019-04-05T14:14:59.217Z,51.20
2019-04-05T14:17:26.894Z,51.80
2019-04-05T14:19:54.578Z,51.10
2019-04-05T14:22:22.971Z,51.20
2019-04-05T14:24:52.928Z,51.70
2019-04-05T14:27:20.290Z,52.10
2019-04-05T14:29:48.034Z,51.80
2019-04-05T14:32:21.068Z,52.20
2019-04-05T14:34:45.363Z,51.70
2019-04-05T14:37:13.040Z,51.90
2019-04-05T14:39:40.801Z,51.70
2019-04-05T14:42:10.073Z,51.90
2019-04-05T14:44:38.094Z,52.40
2019-04-05T14:47:05.772Z,51.80
2019-04-05T14:49:33.545Z,52.30
2019-04-05T14:52:01.963Z,53.10
2019-04-05T14:54:30.855Z,53.40
2019-04-05T14:57:02.437Z,53.30
2019-04-05T14:59:29.193Z,53.20
2019-04-05T15:01:56.943Z,52.70
2019-04-05T15:04:25.000Z,52.70
2019-04-05T15:06:52.873Z,52.60
2019-04-05T15:09:24.849Z,52.80
2019-04-05T15:11:50.461Z,53.10
2019-04-05T15:14:18.134Z,52.70
2019-04-05T15:16:45.787Z,52.80
2019-04-05T15:19:13.537Z,51.70
2019-04-05T15:21:41.217Z,52.40
2019-04-05T15:24:09.033Z,51.90
2019-04-05T15:26:36.827Z,52.60
2019-04-05T15:29:04.703Z,52.00
2019-04-05T15:31:32.480Z,51.70
2019-04-05T15:34:00.308Z,51.50
2019-04-05T15:36:29.399Z,51.50
2019-04-05T15:38:57.496Z,52.30
2019-04-05T15:41:25.181Z,51.70
2019-04-05T15:43:52.890Z,52.20
2019-04-05T15:46:20.770Z,51.80
2019-04-05T15:48:49.660Z,52.00
2019-04-05T15:51:18.042Z,51.60
2019-04-05T15:53:45.727Z,52.90
2019-04-05T15:56:14.405Z,52.10
2019-04-05T15:58:42.154Z,52.00
2019-04-05T16:01:10.050Z,53.20
2019-04-05T16:03:37.806Z,52.40
2019-04-05T16:06:05.603Z,53.10
2019-04-05T16:08:33.260Z,52.80
2019-04-05T16:11:00.973Z,52.40
2019-04-05T16:13:28.702Z,53.10
2019-04-05T16:15:56.389Z,52.80
2019-04-05T16:18:24.063Z,52.20
2019-04-05T16:20:51.756Z,51.60
2019-04-05T16:23:19.633Z,51.40
2019-04-05T16:25:47.282Z,51.20
2019-04-05T16:28:15.087Z,51.30
2019-04-05T16:30:42.733Z,51.80
2019-04-05T16:33:10.378Z,52.20
2019-04-05T16:35:39.963Z,52.10
2019-04-05T16:38:07.653Z,52.00
2019-04-05T16:40:35.369Z,52.40
2019-04-05T16:43:03.354Z,52.30
2019-04-05T16:45:31.171Z,52.50
2019-04-05T16:47:58.885Z,52.90
2019-04-05T16:50:26.572Z,53.00
2019-04-05T16:52:54.451Z,53.00
2019-04-05T16:55:22.201Z,53.10
2019-04-05T16:57:49.842Z,52.30
2019-04-05T17:00:18.722Z,52.50
2019-04-05T17:02:46.389Z,53.00
2019-04-05T17:05:14.062Z,53.00
2019-04-05T17:07:41.820Z,53.00
2019-04-05T17:10:09.882Z,53.00
2019-04-05T17:12:37.608Z,53.10
2019-04-05T17:15:06.584Z,53.50
2019-04-05T17:17:34.298Z,53.70
2019-04-05T17:20:01.979Z,53.30
2019-04-05T17:22:30.734Z,53.30
2019-04-05T17:24:58.514Z,53.70
2019-04-05T17:27:26.397Z,54.00
2019-04-05T17:29:54.128Z,54.40
2019-04-05T17:32:21.825Z,54.40
2019-04-05T17:34:50.688Z,54.20
2019-04-05T17:37:18.507Z,54.40
2019-04-05T17:39:46.202Z,54.40
2019-04-05T17:42:14.193Z,53.40
2019-04-05T17:44:42.070Z,53.90
2019-04-05T17:47:09.781Z,53.20
2019-04-05T17:49:37.589Z,53.70
2019-04-05T17:52:06.233Z,53.60
2019-04-05T17:54:34.011Z,54.50
2019-04-05T17:57:01.820Z,54.00
2019-04-05T17:59:29.606Z,54.20
2019-04-05T18:01:57.285Z,55.00
2019-04-05T18:04:28.234Z,54.10
2019-04-05T18:06:56.005Z,54.40
2019-04-05T18:09:23.712Z,54.60
2019-04-05T18:11:51.379Z,54.50
2019-04-05T18:14:19.136Z,54.30
2019-04-05T18:16:47.633Z,54.60
2019-04-05T18:19:15.316Z,54.70
2019-04-05T18:21:43.012Z,54.70
2019-04-05T18:24:10.709Z,55.20
2019-04-05T18:26:38.384Z,55.30
2019-04-05T18:29:06.084Z,55.80
2019-04-05T18:31:33.767Z,55.60
2019-04-05T18:34:01.462Z,55.50
2019-04-05T18:36:30.378Z,55.90
2019-04-05T18:38:58.145Z,55.80
2019-04-05T18:41:25.849Z,55.60
2019-04-05T18:43:53.548Z,55.70
2019-04-05T18:46:21.289Z,55.40
2019-04-05T18:48:49.081Z,56.00
2019-04-05T18:51:16.821Z,56.40
2019-04-05T18:53:44.485Z,56.70
2019-04-05T18:56:12.122Z,56.60
2019-04-05T18:58:39.805Z,57.00
2019-04-05T19:01:07.543Z,57.30
2019-04-05T19:03:35.347Z,57.40
2019-04-05T19:06:03.145Z,57.30
2019-04-05T19:08:39.393Z,58.30
2019-04-05T19:11:00.507Z,57.50
2019-04-05T19:13:28.220Z,58.20
2019-04-05T19:15:55.920Z,58.20
2019-04-05T19:18:23.820Z,58.20
2019-04-05T19:20:51.573Z,58.20
2019-04-05T19:23:19.233Z,58.20
2019-04-05T19:25:46.928Z,58.20
2019-04-05T19:28:14.616Z,58.20
2019-04-05T19:50:39.427Z,58.20
2019-04-05T19:53:07.082Z,58.10
2019-04-05T19:55:34.832Z,58.20
2019-04-05T19:58:02.466Z,58.50
2019-04-05T20:00:30.165Z,59.10
2019-04-05T20:02:57.949Z,59.10
2019-04-05T20:05:25.621Z,59.40
2019-04-05T20:07:53.282Z,59.20
2019-04-05T20:10:21.093Z,59.00
2019-04-05T20:12:48.865Z,58.60
2019-04-05T20:15:16.685Z,59.40
2019-04-05T20:17:44.369Z,59.60
2019-04-05T20:20:12.296Z,60.20
2019-04-05T20:22:40.089Z,60.00
2019-04-05T20:25:08.261Z,59.90
2019-04-05T20:27:36.032Z,60.00
2019-04-05T20:30:05.822Z,59.90
2019-04-05T20:32:33.575Z,60.00
2019-04-05T20:35:01.305Z,60.00
2019-04-05T20:37:28.983Z,60.20
2019-04-05T20:39:56.675Z,60.30
2019-04-05T20:42:24.393Z,60.10
2019-04-05T20:44:52.195Z,60.30
2019-04-05T20:47:19.933Z,60.60
2019-04-05T20:49:47.646Z,60.70
2019-04-05T20:52:15.394Z,60.50
2019-04-05T20:54:43.068Z,60.90
2019-04-05T20:57:10.708Z,61.00
2019-04-05T20:59:38.372Z,60.60
2019-04-05T21:02:06.709Z,60.50
2019-04-05T21:04:34.381Z,60.80
2019-04-05T21:07:02.364Z,60.70
2019-04-05T21:09:30.161Z,61.20
2019-04-05T21:11:57.961Z,61.00
2019-04-05T21:14:25.634Z,60.80
2019-04-05T21:16:53.300Z,60.80
2019-04-05T21:19:21.133Z,60.90
2019-04-05T21:21:48.860Z,60.90
2019-04-05T21:24:17.528Z,61.00
2019-04-05T21:26:45.299Z,61.10
2019-04-05T21:29:13.027Z,61.80
2019-04-05T21:31:40.680Z,61.40
2019-04-05T21:34:08.372Z,61.80
2019-04-05T21:36:36.042Z,61.60
2019-04-05T21:39:06.186Z,61.60
2019-04-05T21:41:34.148Z,61.60
2019-04-05T21:44:01.916Z,61.40
2019-04-05T21:46:29.581Z,61.60
2019-04-05T21:48:57.273Z,61.70
2019-04-05T21:51:24.932Z,61.50
2019-04-05T21:53:52.743Z,61.80
2019-04-05T21:56:20.412Z,61.60
2019-04-05T21:58:48.170Z,62.50
2019-04-05T22:01:16.170Z,61.80
2019-04-05T22:03:44.110Z,61.80
2019-04-05T22:06:11.786Z,61.90
2019-04-05T22:08:39.426Z,61.20
2019-04-05T22:11:07.109Z,61.40
2019-04-05T22:13:34.749Z,61.70
2019-04-05T22:16:02.385Z,61.50
2019-04-05T22:18:30.065Z,62.10
2019-04-05T22:20:57.714Z,61.80
2019-04-05T22:23:25.437Z,61.90
2019-04-05T22:25:53.061Z,61.90
2019-04-05T22:28:20.703Z,62.00
2019-04-05T22:30:48.345Z,61.70
2019-04-05T22:33:15.997Z,61.70
2019-04-05T22:35:43.724Z,61.50
2019-04-05T22:38:11.373Z,62.00
2019-04-05T22:40:39.020Z,61.90
2019-04-05T22:43:06.692Z,62.10
2019-04-05T22:45:34.385Z,62.20
2019-04-05T22:48:02.082Z,62.20
2019-04-05T22:50:29.741Z,61.80
2019-04-05T22:52:57.409Z,62.00
2019-04-05T22:55:25.159Z,62.20
2019-04-05T22:57:52.838Z,62.10
2019-04-05T23:00:20.517Z,62.00
2019-04-05T23:02:50.112Z,62.30
2019-04-05T23:05:17.765Z,62.30
2019-04-05T23:07:45.409Z,62.20
2019-04-05T23:10:15.012Z,62.20
2019-04-05T23:12:42.788Z,62.00
2019-04-05T23:15:11.864Z,62.10
2019-04-05T23:17:39.645Z,62.20
2019-04-05T23:20:07.526Z,62.00
2019-04-05T23:22:35.211Z,62.20
2019-04-05T23:25:03.348Z,62.20
2019-04-05T23:27:31.028Z,62.30
2019-04-05T23:29:58.762Z,62.10
2019-04-05T23:32:26.414Z,62.00
2019-04-05T23:34:54.062Z,61.90
2019-04-05T23:37:21.744Z,62.00
2019-04-05T23:39:49.412Z,62.10
2019-04-05T23:42:17.040Z,61.90
2019-04-05T23:44:44.934Z,60.90
2019-04-05T23:47:12.593Z,61.00
2019-04-05T23:49:40.234Z,61.00
2019-04-05T23:52:07.901Z,61.10
2019-04-05T23:54:36.535Z,61.30
2019-04-05T23:57:04.350Z,61.70
2019-04-05T23:59:32.003Z,61.50
